Time;durP1;ratioP1;P1;durP2;ratioP2;P2;SDS_P1;SDS_P2;PMS_P1;PMS_P2;Temp;Humidity;BMP_temperature;BMP_pressure;BME280_temperature;BME280_humidity;BME280_pressure;Samples;Min_cycle;Max_cycle;Signal;HPM_P1;HPM_P2
2021/05/19 00:01:31;;;;;;;3.43;3.13;;;;;;;12.52;76.22;99675.42;126270;1111;100955;-89
2021/05/19 00:04:02;;;;;;;6.63;4.13;;;;;;;12.50;76.48;99669.30;126301;1111;102121;-87
2021/05/19 00:06:33;;;;;;;6.60;3.50;;;;;;;12.55;76.27;99677.08;126256;1111;100850;-88
2021/05/19 00:09:15;;;;;;;4.80;2.87;;;;;;;12.57;76.26;99667.21;127073;1107;101099;-90
2021/05/19 00:11:50;;;;;;;3.77;2.80;;;;;;;12.60;76.14;99674.22;127026;1107;101104;-89
2021/05/19 00:14:24;;;;;;;6.20;3.63;;;;;;;12.60;76.11;99672.40;126971;1107;102747;-87
2021/05/19 00:16:56;;;;;;;4.37;3.00;;;;;;;12.60;75.96;99672.40;126989;1107;100821;-88
2021/05/19 00:19:31;;;;;;;4.80;2.70;;;;;;;12.60;76.59;99669.73;127013;1107;101257;-89
2021/05/19 00:22:03;;;;;;;3.90;2.85;;;;;;;12.63;76.30;99674.06;126982;1107;101103;-89
2021/05/19 00:24:48;;;;;;;4.97;3.70;;;;;;;12.63;76.31;99672.25;126997;1107;101292;-88
2021/05/19 00:27:42;;;;;;;5.70;3.65;;;;;;;12.64;76.18;99678.47;126652;1108;101006;-88
2021/05/19 00:30:19;;;;;;;4.07;3.00;;;;;;;12.62;76.07;99675.00;126985;1108;100868;-90
2021/05/19 00:32:47;;;;;;;3.90;2.75;;;;;;;12.59;76.55;99670.66;126884;1108;101057;-90
2021/05/19 00:38:26;;;;;;;3.77;3.37;;;;;;;12.56;77.00;99667.28;126995;1107;101871;-88
2021/05/19 00:41:14;;;;;;;3.33;3.03;;;;;;;12.52;76.89;99667.41;127043;1108;101258;-89
2021/05/19 00:44:02;;;;;;;4.28;3.05;;;;;;;12.55;76.87;99666.40;126993;1107;102212;-89
2021/05/19 00:46:41;;;;;;;4.08;3.73;;;;;;;12.62;76.78;99678.55;127023;1107;102476;-89
2021/05/19 00:49:22;;;;;;;4.08;3.55;;;;;;;12.64;76.73;99681.15;127013;1108;101355;-89
2021/05/19 00:51:53;;;;;;;3.78;3.18;;;;;;;12.51;76.74;99676.34;127091;1108;100886;-90
2021/05/19 00:54:21;;;;;;;3.75;3.40;;;;;;;12.46;76.76;99678.39;127005;1107;101036;-87
2021/05/19 00:57:02;;;;;;;5.80;4.03;;;;;;;12.47;77.38;99684.59;127054;1108;102766;-86
2021/05/19 01:02:30;;;;;;;5.15;3.63;;;;;;;12.47;77.01;99680.09;127063;1107;100933;-87
2021/05/19 01:04:58;;;;;;;3.77;3.17;;;;;;;12.48;76.95;99676.50;127050;1108;100888;-86
2021/05/19 01:07:28;;;;;;;3.73;3.43;;;;;;;12.48;77.17;99673.83;127041;1107;101715;-89
2021/05/19 01:12:54;;;;;;;4.13;3.10;;;;;;;12.54;76.89;99676.23;127109;1108;101110;-85
2021/05/19 01:15:22;;;;;;;4.00;3.60;;;;;;;12.52;76.97;99675.42;127035;1107;101103;-85
2021/05/19 01:18:13;;;;;;;4.63;3.67;;;;;;;12.49;77.32;99680.91;127052;1108;102007;-87
2021/05/19 01:23:45;;;;;;;4.90;4.45;;;;;;;12.57;76.91;99685.91;127084;1107;101705;-87
2021/05/19 01:26:13;;;;;;;5.63;3.83;;;;;;;12.62;76.51;99685.68;127082;1108;102041;-86
2021/05/19 01:29:01;;;;;;;3.58;3.28;;;;;;;12.59;76.21;99685.83;126267;1111;102039;-89
2021/05/19 01:31:29;;;;;;;6.00;3.33;;;;;;;12.57;76.50;99679.68;126326;1110;101496;-84
2021/05/19 01:34:51;;;;;;;4.73;4.33;;;;;;;12.48;76.45;99679.17;126676;1108;101434;-88
2021/05/19 01:40:24;;;;;;;6.73;4.90;;;;;;;12.34;76.84;99684.27;126967;1108;101679;-86
2021/05/19 01:43:04;;;;;;;3.40;3.10;;;;;;;12.34;76.93;99681.59;127003;1108;101019;-85
2021/05/19 01:45:52;;;;;;;3.67;3.07;;;;;;;12.33;76.50;99693.23;127068;1107;101239;-86
2021/05/19 01:48:24;;;;;;;3.95;2.70;;;;;;;12.26;76.54;99689.98;127021;1108;101121;-83
2021/05/19 01:50:55;;;;;;;4.60;2.80;;;;;;;12.22;76.86;99683.02;127066;1108;101845;-84
2021/05/19 01:53:41;;;;;;;4.37;3.27;;;;;;;12.19;76.92;99693.84;127061;1107;100912;-88
2021/05/19 01:56:10;;;;;;;3.60;3.30;;;;;;;12.18;76.85;99686.75;127072;1108;101206;-87
2021/05/19 01:58:51;;;;;;;3.38;3.08;;;;;;;12.16;76.76;99686.83;127065;1108;100781;-85
2021/05/19 02:01:28;;;;;;;3.20;2.70;;;;;;;12.19;76.81;99686.69;127054;1107;104323;-88
2021/05/19 02:04:24;;;;;;;3.50;3.20;;;;;;;12.24;76.86;99697.17;126992;1108;101350;-87
2021/05/19 02:07:02;;;;;;;2.78;2.55;;;;;;;12.16;76.60;99699.32;127067;1107;100858;-89
2021/05/19 02:10:20;;;;;;;3.40;2.60;;;;;;;12.14;76.60;99703.84;126277;1111;101659;-86
2021/05/19 02:13:07;;;;;;;2.88;2.40;;;;;;;12.04;77.37;99703.39;126283;1111;101820;-84
2021/05/19 02:15:35;;;;;;;2.48;2.20;;;;;;;12.09;76.95;99697.84;126223;1111;100993;-86
2021/05/19 02:18:39;;;;;;;2.77;2.57;;;;;;;12.13;77.08;99697.66;126331;1111;100859;-87
2021/05/19 02:21:14;;;;;;;2.27;2.07;;;;;;;12.06;77.04;99697.98;126269;1111;101038;-84
2021/05/19 02:23:51;;;;;;;3.17;2.67;;;;;;;12.07;77.00;99705.06;126264;1111;102070;-88
2021/05/19 02:26:23;;;;;;;2.57;2.37;;;;;;;12.03;77.46;99705.17;126232;1111;101078;-87
2021/05/19 02:28:51;;;;;;;2.93;2.68;;;;;;;12.08;77.33;99712.14;126293;1110;101214;-88
2021/05/19 02:31:59;;;;;;;6.80;3.03;;;;;;;12.19;77.06;99712.52;126300;1110;101239;-87
2021/05/19 02:34:39;;;;;;;3.10;2.80;;;;;;;12.18;77.10;99711.67;126283;1110;102576;-86
2021/05/19 02:37:10;;;;;;;4.25;3.28;;;;;;;12.17;77.08;99717.08;126242;1110;101847;-86
2021/05/19 02:39:44;;;;;;;7.37;4.53;;;;;;;12.15;76.80;99721.61;126348;1110;101294;-86
2021/05/19 02:42:30;;;;;;;3.30;2.78;;;;;;;12.13;76.89;99721.67;126241;1111;100908;-86
2021/05/19 02:44:58;;;;;;;2.90;2.60;;;;;;;12.12;76.87;99717.27;126287;1110;101746;-84
2021/05/19 02:47:26;;;;;;;2.90;2.60;;;;;;;12.07;76.48;99715.73;126725;1108;100895;-86
2021/05/19 02:55:33;;;;;;;2.77;2.43;;;;;;;12.07;77.22;99721.93;127020;1108;101734;-87
2021/05/19 02:58:01;;;;;;;3.30;2.50;;;;;;;12.07;77.04;99719.27;127061;1108;101456;-89
2021/05/19 03:00:29;;;;;;;5.23;3.43;;;;;;;12.06;77.13;99722.00;127070;1108;101180;-88
2021/05/19 03:02:56;;;;;;;3.25;2.60;;;;;;;12.00;77.27;99728.48;127057;1108;101133;-88
2021/05/19 03:05:24;;;;;;;4.00;3.43;;;;;;;11.96;77.33;99727.73;127075;1108;101732;-85
2021/05/19 03:07:52;;;;;;;5.17;3.27;;;;;;;11.95;77.58;99727.81;127062;1108;101249;-87
2021/05/19 03:10:19;;;;;;;4.18;3.78;;;;;;;11.91;77.73;99727.03;127087;1108;101142;-84
2021/05/19 03:12:50;;;;;;;5.58;3.70;;;;;;;11.96;77.52;99721.55;127085;1108;101350;-87
2021/05/19 03:15:19;;;;;;;3.23;2.93;;;;;;;11.97;78.05;99721.48;127080;1108;102850;-86
2021/05/19 03:17:47;;;;;;;5.03;2.97;;;;;;;12.01;77.52;99731.08;127024;1108;101222;-86
2021/05/19 03:23:42;;;;;;;7.10;3.48;;;;;;;12.04;77.54;99727.41;126250;1110;101162;-87
2021/05/19 03:26:10;;;;;;;5.37;3.77;;;;;;;12.08;77.50;99731.69;126294;1111;101690;-86
2021/05/19 03:28:37;;;;;;;7.88;4.78;;;;;;;12.13;77.41;99726.13;126203;1111;101770;-88
2021/05/19 03:31:08;;;;;;;6.23;4.40;;;;;;;12.07;77.36;99732.61;126253;1111;101290;-85
2021/05/19 03:33:36;;;;;;;4.63;3.57;;;;;;;12.08;77.47;99730.83;126262;1111;101230;-87
2021/05/19 03:36:07;;;;;;;4.45;4.00;;;;;;;12.10;77.27;99734.28;126266;1111;102298;-88
2021/05/19 03:38:35;;;;;;;4.45;3.68;;;;;;;12.09;77.05;99730.75;126257;1110;101363;-86
2021/05/19 03:41:07;;;;;;;5.38;4.33;;;;;;;12.08;77.12;99739.69;126285;1111;101383;-86
2021/05/19 03:43:36;;;;;;;4.10;3.80;;;;;;;12.12;77.23;99743.95;126268;1111;101699;-88
2021/05/19 03:46:04;;;;;;;4.33;3.93;;;;;;;12.12;77.14;99741.29;126248;1111;102342;-86
2021/05/19 03:48:54;;;;;;;4.45;4.05;;;;;;;12.17;77.28;99739.29;126300;1111;101208;-87
2021/05/19 03:51:25;;;;;;;4.63;4.20;;;;;;;12.21;77.03;99737.36;126290;1110;102064;-86
2021/05/19 03:54:12;;;;;;;4.87;3.97;;;;;;;12.19;76.98;99733.88;126257;1110;101222;-87
2021/05/19 03:56:39;;;;;;;4.40;4.00;;;;;;;12.16;77.02;99747.38;126216;1111;102773;-87
2021/05/19 03:59:07;;;;;;;7.17;4.20;;;;;;;12.15;77.00;99742.96;126943;1108;101061;-86
2021/05/19 04:01:34;;;;;;;6.60;4.73;;;;;;;12.15;76.93;99738.48;127105;1108;100853;-87
2021/05/19 04:04:02;;;;;;;4.87;4.47;;;;;;;12.14;76.94;99747.44;127020;1108;100876;-85
2021/05/19 04:06:29;;;;;;;6.18;4.08;;;;;;;12.15;77.27;99753.64;127047;1108;101742;-85
2021/05/19 04:08:57;;;;;;;7.40;4.20;;;;;;;12.09;76.84;99752.11;127091;1108;101168;-89
2021/05/19 04:11:25;;;;;;;5.67;4.37;;;;;;;12.14;77.18;99750.11;127110;1108;100825;-89
2021/05/19 04:13:52;;;;;;;6.00;4.50;;;;;;;12.21;76.96;99750.71;127046;1108;101467;-88
2021/05/19 04:16:20;;;;;;;3.73;3.43;;;;;;;12.19;76.79;99756.09;127066;1107;101010;-88
2021/05/19 04:18:48;;;;;;;4.23;3.60;;;;;;;12.17;76.66;99754.45;127038;1107;100987;-90
2021/05/19 04:21:15;;;;;;;6.77;4.57;;;;;;;12.20;76.80;99759.65;127075;1108;101133;-88
2021/05/19 04:23:43;;;;;;;3.98;3.63;;;;;;;12.23;76.81;99759.50;127039;1090;101142;-88
2021/05/19 04:26:18;;;;;;;5.30;3.75;;;;;;;12.23;76.62;99755.98;127051;1091;103875;-88
2021/05/19 04:28:45;;;;;;;5.65;3.45;;;;;;;12.25;76.79;99767.44;127053;1090;101036;-87
2021/05/19 04:31:13;;;;;;;4.47;4.00;;;;;;;12.36;76.84;99770.53;127058;1107;101156;-87
2021/05/19 04:33:41;;;;;;;59.10;43.03;;;;;;;12.37;76.57;99772.27;127088;1106;101125;-88
2021/05/19 04:36:10;;;;;;;9.33;8.00;;;;;;;12.40;76.60;99771.27;127122;1107;102066;-87
2021/05/19 04:38:38;;;;;;;7.40;5.53;;;;;;;12.47;76.52;99775.39;127078;1108;100706;-88
2021/05/19 04:41:25;;;;;;;8.60;6.15;;;;;;;12.54;76.33;99779.52;127201;1105;101321;-88
2021/05/19 04:43:53;;;;;;;6.13;5.15;;;;;;;12.54;76.41;99776.84;127102;1107;101113;-87
2021/05/19 04:46:20;;;;;;;6.48;4.68;;;;;;;12.56;76.10;99777.66;127168;1104;101829;-87
2021/05/19 04:48:54;;;;;;;5.20;4.40;;;;;;;12.59;76.20;99784.66;127058;1104;101115;-87
2021/05/19 04:51:22;;;;;;;10.50;4.60;;;;;;;12.61;76.12;99782.77;127096;1108;101132;-88
2021/05/19 04:53:50;;;;;;;7.58;4.30;;;;;;;12.63;76.05;99780.92;127078;1107;100948;-86
2021/05/19 04:56:31;;;;;;;5.13;4.33;;;;;;;12.69;75.84;99783.33;127070;1107;102102;-88
2021/05/19 04:58:58;;;;;;;6.60;5.00;;;;;;;12.67;75.87;99777.17;127102;1105;101546;-87
2021/05/19 05:01:26;;;;;;;8.20;5.03;;;;;;;12.71;75.82;99786.78;127516;1104;100784;-87
2021/05/19 05:03:53;;;;;;;4.30;3.70;;;;;;;12.77;76.13;99780.28;127106;1104;100930;-86
2021/05/19 05:09:48;;;;;;;5.60;4.40;;;;;;;12.85;75.62;99786.17;126963;1108;101260;-87
2021/05/19 05:12:21;;;;;;;9.17;8.27;;;;;;;12.79;75.69;99800.66;126988;1107;101216;-88
2021/05/19 05:14:50;;;;;;;7.60;5.80;;;;;;;12.76;75.88;99802.62;127036;1108;100965;-89
2021/05/19 05:17:37;;;;;;;4.60;4.20;;;;;;;12.71;75.89;99805.48;126960;1108;101645;-89
2021/05/19 05:20:06;;;;;;;5.13;4.10;;;;;;;12.75;75.86;99809.75;127010;1107;100890;-89
2021/05/19 05:25:33;;;;;;;4.90;4.50;;;;;;;12.64;76.05;99814.72;126485;1108;101346;-92
2021/05/19 05:28:01;;;;;;;4.93;4.47;;;;;;;12.62;76.15;99813.91;127014;1090;102282;-89
2021/05/19 05:30:33;;;;;;;4.60;3.80;;;;;;;12.62;76.31;99813.91;127549;1104;100982;-86
2021/05/19 05:33:01;;;;;;;5.53;4.98;;;;;;;12.71;76.54;99821.52;127595;1104;100725;-88
2021/05/19 05:35:28;;;;;;;5.97;5.10;;;;;;;12.76;76.42;99816.83;127116;1107;101001;-88
2021/05/19 05:37:56;;;;;;;5.40;4.90;;;;;;;12.79;76.47;99821.17;127195;1105;101771;-88
2021/05/19 05:40:44;;;;;;;6.97;5.10;;;;;;;12.81;76.31;99821.95;127450;1105;101935;-88
2021/05/19 05:43:12;;;;;;;4.57;4.13;;;;;;;12.87;76.35;99825.25;127527;1105;101030;-88
2021/05/19 05:45:39;;;;;;;5.30;4.80;;;;;;;12.88;76.24;99826.97;127519;1105;101045;-87
2021/05/19 05:48:22;;;;;;;5.15;4.38;;;;;;;12.92;75.99;99832.19;127135;1105;101644;-87
2021/05/19 05:50:53;;;;;;;8.05;5.53;;;;;;;12.93;76.01;99828.56;127524;1105;101083;-86
2021/05/19 05:53:21;;;;;;;6.93;5.45;;;;;;;13.00;76.02;99824.69;127557;1105;100975;-87
2021/05/19 05:56:02;;;;;;;8.05;5.38;;;;;;;13.02;75.97;99833.48;127551;1104;101184;-87
2021/05/19 05:58:46;;;;;;;5.55;4.98;;;;;;;13.06;76.12;99835.08;127457;1104;101663;-87
2021/05/19 06:02:10;;;;;;;14.17;7.27;;;;;;;13.12;76.26;99841.97;126481;1108;101316;-88
2021/05/19 06:04:44;;;;;;;8.63;6.35;;;;;;;13.13;76.04;99833.88;126976;1107;101059;-87
2021/05/19 06:07:11;;;;;;;6.97;6.20;;;;;;;13.16;76.26;99830.20;126971;1107;101253;-87
2021/05/19 06:09:39;;;;;;;8.60;7.73;;;;;;;13.23;76.09;99838.80;126975;1108;101017;-87
2021/05/19 06:12:07;;;;;;;10.03;7.13;;;;;;;13.23;75.87;99836.13;126962;1107;101537;-87
2021/05/19 06:14:34;;;;;;;10.30;7.60;;;;;;;13.25;75.90;99836.91;126957;1108;101007;-87
2021/05/19 06:17:03;;;;;;;7.60;6.80;;;;;;;13.31;75.83;99836.63;126973;1108;101110;-89
2021/05/19 06:19:46;;;;;;;8.50;7.37;;;;;;;13.31;75.62;99842.84;127001;1107;102279;-88
2021/05/19 06:22:17;;;;;;;7.70;6.90;;;;;;;13.33;75.84;99846.32;126622;1107;101269;-87
2021/05/19 06:27:37;;;;;;;8.57;7.67;;;;;;;13.42;75.77;99844.18;126368;1108;101129;-91
2021/05/19 06:30:14;;;;;;;9.80;7.48;;;;;;;13.44;75.48;99840.50;126425;1108;101957;-88
2021/05/19 06:32:42;;;;;;;8.60;7.43;;;;;;;13.38;75.30;99844.34;126440;1108;101705;-89
2021/05/19 06:35:11;;;;;;;8.50;7.60;;;;;;;13.39;75.42;99845.19;127394;1089;100999;-89
2021/05/19 06:37:38;;;;;;;9.27;8.23;;;;;;;13.45;75.61;99839.56;127117;1104;101258;-87
2021/05/19 06:40:07;;;;;;;12.03;8.40;;;;;;;13.51;75.61;99849.95;127504;1105;101450;-87
2021/05/19 06:42:35;;;;;;;13.03;7.90;;;;;;;13.52;75.52;99846.34;127547;1104;101085;-87
2021/05/19 06:45:07;;;;;;;10.40;8.90;;;;;;;13.50;75.16;99850.03;127206;1105;101629;-88
2021/05/19 06:47:34;;;;;;;12.30;8.13;;;;;;;13.47;75.54;99856.39;127529;1104;102081;-87
2021/05/19 06:50:02;;;;;;;10.68;8.35;;;;;;;13.57;75.47;99853.28;127355;1105;101696;-88
2021/05/19 06:52:30;;;;;;;13.45;9.15;;;;;;;13.65;75.44;99846.64;127494;1104;101861;-88
2021/05/19 06:54:57;;;;;;;10.30;8.53;;;;;;;13.65;75.18;99854.66;127541;1104;101284;-88
2021/05/19 06:57:25;;;;;;;10.77;9.17;;;;;;;13.72;75.29;99857.91;127166;1104;101200;-88
2021/05/19 06:59:52;;;;;;;10.67;8.97;;;;;;;13.84;75.09;99857.31;127542;1104;101121;-88
2021/05/19 07:02:20;;;;;;;9.13;7.77;;;;;;;13.87;74.66;99853.62;127403;1105;102310;-88
2021/05/19 07:04:48;;;;;;;9.57;8.57;;;;;;;13.91;74.60;99851.67;127551;1104;101042;-89
2021/05/19 07:07:55;;;;;;;11.13;9.50;;;;;;;13.91;74.74;99846.31;127540;1104;100782;-89
2021/05/19 07:10:31;;;;;;;9.80;8.27;;;;;;;13.92;74.52;99851.59;127566;1104;101813;-89
2021/05/19 07:13:16;;;;;;;9.55;8.70;;;;;;;13.90;74.40;99858.81;127066;1107;101421;-88
2021/05/19 07:16:01;;;;;;;10.63;9.63;;;;;;;13.86;74.35;99854.55;127073;1108;100923;-87
2021/05/19 07:18:35;;;;;;;10.53;9.05;;;;;;;13.81;74.52;99859.29;127046;1107;101303;-90
2021/05/19 07:21:05;;;;;;;10.93;8.80;;;;;;;13.94;74.49;99855.08;127015;1107;101873;-89
2021/05/19 07:23:33;;;;;;;13.05;9.03;;;;;;;14.03;74.41;99853.73;127053;1108;101036;-90
2021/05/19 07:26:37;;;;;;;9.30;8.40;;;;;;;14.03;74.31;99856.41;127044;1108;101232;-88
2021/05/19 07:29:08;;;;;;;12.53;10.73;;;;;;;14.00;73.72;99845.86;127012;1107;100828;-88
2021/05/19 07:31:35;;;;;;;11.23;9.88;;;;;;;13.97;73.23;99846.88;126725;1108;101719;-89
2021/05/19 07:34:17;;;;;;;11.83;10.10;;;;;;;14.02;74.06;99855.55;126872;1108;101166;-88
2021/05/19 07:36:45;;;;;;;12.37;10.57;;;;;;;14.12;74.32;99845.24;127083;1108;100987;-89
2021/05/19 07:39:26;;;;;;;12.33;10.58;;;;;;;14.20;74.29;99848.40;126513;1108;101882;-89
2021/05/19 07:41:58;;;;;;;12.13;10.00;;;;;;;14.34;74.02;99852.19;127047;1108;101878;-89
2021/05/19 07:44:31;;;;;;;11.90;10.63;;;;;;;14.40;73.44;99853.71;126881;1107;101193;-90
2021/05/19 07:46:58;;;;;;;11.60;10.40;;;;;;;14.38;73.44;99849.30;127111;1107;101017;-90
2021/05/19 07:49:24;;;;;;;11.83;10.70;;;;;;;14.39;73.37;99847.47;127103;1108;101274;-91
2021/05/19 07:51:51;;;;;;;15.50;11.50;;;;;;;14.42;73.51;99855.37;127241;1105;101130;-91
2021/05/19 07:54:28;;;;;;;13.50;11.40;;;;;;;14.47;73.65;99855.97;127356;1104;101139;-91
2021/05/19 07:57:00;;;;;;;13.98;12.60;;;;;;;14.51;73.81;99852.22;127349;1104;100961;-90
2021/05/19 07:59:30;;;;;;;12.33;10.23;;;;;;;14.61;73.96;99851.71;127307;1105;101995;-90
2021/05/19 08:02:03;;;;;;;12.93;10.40;;;;;;;14.70;73.24;99853.95;127158;1105;101603;-92
2021/05/19 08:04:32;;;;;;;12.47;11.17;;;;;;;14.64;72.76;99859.65;127392;1099;100958;-93
2021/05/19 08:06:58;;;;;;;11.88;10.70;;;;;;;14.60;72.73;99863.41;127199;1104;101199;-92
2021/05/19 08:09:25;;;;;;;12.67;11.00;;;;;;;14.54;72.64;99856.52;127416;1105;101012;-91
2021/05/19 08:11:51;;;;;;;11.05;9.93;;;;;;;14.63;73.25;99855.20;127286;1105;101113;-91
2021/05/19 08:14:20;;;;;;;10.23;8.97;;;;;;;14.62;72.46;99856.13;127317;1107;100957;-92
2021/05/19 08:16:47;;;;;;;10.80;9.38;;;;;;;14.61;72.36;99863.31;127421;1105;101027;-90
2021/05/19 08:19:14;;;;;;;14.15;9.75;;;;;;;14.61;71.98;99863.31;127217;1105;100804;-92
2021/05/19 08:21:41;;;;;;;11.27;10.17;;;;;;;14.55;72.31;99859.16;127167;1105;101603;-88
2021/05/19 08:24:11;;;;;;;11.08;9.98;;;;;;;14.57;72.20;99863.54;127351;1105;101042;-93
2021/05/19 08:26:45;;;;;;;11.60;8.90;;;;;;;14.58;72.42;99868.84;127232;1107;100773;-89
2021/05/19 08:29:13;;;;;;;11.90;9.97;;;;;;;14.66;72.51;99874.70;127419;1104;101260;-93
2021/05/19 08:31:53;;;;;;;12.95;10.43;;;;;;;14.67;72.31;99872.88;127273;1105;101720;-92
2021/05/19 08:34:21;;;;;;;13.83;9.95;;;;;;;14.65;72.37;99874.79;127391;1104;102855;-93
2021/05/19 08:36:49;;;;;;;11.00;9.53;;;;;;;14.72;71.68;99873.51;127520;1104;100909;-91
2021/05/19 08:39:19;;;;;;;12.33;10.27;;;;;;;14.72;72.63;99873.51;127228;1105;101261;-87
2021/05/19 08:41:48;;;;;;;10.50;9.30;;;;;;;14.70;71.67;99873.59;127325;1104;101541;-92
2021/05/19 08:44:16;;;;;;;10.60;9.50;;;;;;;14.72;71.73;99876.19;127228;1105;101809;-89
2021/05/19 08:46:45;;;;;;;14.80;9.28;;;;;;;14.78;71.79;99877.67;127472;1104;101107;-93
2021/05/19 08:49:14;;;;;;;11.40;10.20;;;;;;;14.75;71.59;99880.53;127367;1105;100954;-90
2021/05/19 08:52:00;;;;;;;10.70;9.65;;;;;;;14.75;71.74;99877.84;127107;1105;101286;-93
2021/05/19 08:54:35;;;;;;;12.23;10.15;;;;;;;14.84;71.98;99877.37;127431;1105;101648;-94
2021/05/19 08:57:02;;;;;;;10.80;8.90;;;;;;;14.87;71.21;99880.77;127270;1106;101404;-88
2021/05/19 08:59:30;;;;;;;12.15;10.33;;;;;;;14.95;72.17;99883.02;127311;1105;101195;-91
2021/05/19 09:02:09;;;;;;;13.27;11.83;;;;;;;15.03;72.63;99886.19;127347;1105;101098;-95
2021/05/19 09:04:37;;;;;;;13.45;11.00;;;;;;;15.17;72.52;99873.84;127406;1105;101693;-92
2021/05/19 09:07:06;;;;;;;11.85;10.63;;;;;;;15.24;72.30;99872.55;127128;1107;101063;-94
2021/05/19 09:09:35;;;;;;;9.57;8.63;;;;;;;15.28;71.25;99881.31;127175;1106;101437;-90
2021/05/19 09:12:13;;;;;;;13.85;11.25;;;;;;;15.35;70.63;99877.33;127320;1105;101140;-92
2021/05/19 09:15:05;;;;;;;12.05;10.10;;;;;;;15.30;69.03;99884.76;127164;1104;101714;-90
2021/05/19 09:18:14;;;;;;;12.73;9.13;;;;;;;15.27;70.44;99887.63;127151;1105;101259;-92
2021/05/19 09:20:59;;;;;;;11.88;9.60;;;;;;;15.26;70.27;99883.20;127313;1104;101240;-86
2021/05/19 09:23:27;;;;;;;11.55;9.78;;;;;;;15.29;70.42;99891.95;127248;1104;101096;-92
2021/05/19 09:26:10;;;;;;;16.75;9.90;;;;;;;15.35;70.96;99886.27;127297;1105;102040;-89
2021/05/19 09:28:38;;;;;;;10.60;9.28;;;;;;;15.51;70.45;99883.61;127356;1105;100963;-89
2021/05/19 09:31:21;;;;;;;9.63;8.17;;;;;;;15.59;70.18;99882.30;127161;1105;101001;-86
2021/05/19 09:33:58;;;;;;;10.95;8.50;;;;;;;15.59;68.60;99882.30;127250;1105;101024;-92
2021/05/19 09:36:26;;;;;;;12.18;9.05;;;;;;;15.59;69.60;99879.63;127201;1105;101707;-87
2021/05/19 09:38:54;;;;;;;9.30;8.40;;;;;;;15.58;68.58;99885.93;127248;1107;101958;-85
2021/05/19 09:41:24;;;;;;;8.80;7.90;;;;;;;15.67;68.31;99886.31;127152;1105;101194;-88
2021/05/19 09:43:55;;;;;;;10.03;8.58;;;;;;;15.70;68.06;99882.55;127255;1105;101049;-83
2021/05/19 09:49:18;;;;;;;10.33;7.78;;;;;;;15.91;67.29;99880.52;127251;1104;101047;-83
2021/05/19 09:51:53;;;;;;;8.40;7.20;;;;;;;15.96;67.00;99881.13;127278;1105;101043;-81
2021/05/19 09:54:25;;;;;;;10.10;8.17;;;;;;;16.18;66.60;99887.94;127157;1105;101966;-88
2021/05/19 09:56:57;;;;;;;9.63;6.88;;;;;;;16.46;66.58;99880.95;127041;1106;102154;-86
2021/05/19 09:59:24;;;;;;;10.93;7.07;;;;;;;16.59;66.41;99894.54;127207;1104;101224;-90
2021/05/19 10:01:53;;;;;;;8.60;6.43;;;;;;;16.60;65.67;99886.38;127111;1107;100926;-88
2021/05/19 10:04:25;;;;;;;6.53;5.93;;;;;;;16.49;64.43;99889.70;127075;1105;101752;-86
2021/05/19 10:06:56;;;;;;;8.53;6.03;;;;;;;16.46;64.35;99889.02;127098;1107;101798;-89
2021/05/19 10:09:26;;;;;;;6.45;5.83;;;;;;;16.41;64.39;99891.98;127151;1105;101109;-84
2021/05/19 10:11:55;;;;;;;8.55;7.10;;;;;;;16.48;63.90;99892.48;127181;1107;101163;-90
2021/05/19 10:14:23;;;;;;;7.63;6.13;;;;;;;16.53;64.25;99882.34;127152;1106;101201;-85
2021/05/19 10:17:00;;;;;;;5.90;5.40;;;;;;;16.49;62.97;99884.33;127043;1107;102432;-87
2021/05/19 10:19:33;;;;;;;7.25;5.30;;;;;;;16.48;63.13;99887.97;127102;1107;101165;-89
2021/05/19 10:22:05;;;;;;;6.17;5.47;;;;;;;16.59;62.46;99890.02;127075;1105;101109;-88
2021/05/19 10:25:39;;;;;;;9.10;6.60;;;;;;;16.55;63.03;99892.05;127238;1105;100802;-89
2021/05/19 10:27:52;;;;;;;6.90;5.47;;;;;;;16.65;62.63;99896.88;127146;1106;101945;-90
2021/05/19 10:30:38;;;;;;;7.17;4.50;;;;;;;16.71;61.14;99893.80;127170;1105;100956;-91
2021/05/19 10:33:30;;;;;;;9.33;4.33;;;;;;;16.69;61.52;99890.35;127269;1105;101077;-88
2021/05/19 10:36:21;;;;;;;7.93;5.00;;;;;;;16.72;59.22;99895.53;127166;1104;101191;-89
2021/05/19 10:39:09;;;;;;;4.25;3.93;;;;;;;16.84;60.41;99899.31;127154;1105;101727;-87
2021/05/19 10:41:41;;;;;;;5.35;4.43;;;;;;;16.94;59.35;99900.52;127137;1107;101000;-84
2021/05/19 10:44:12;;;;;;;5.15;4.25;;;;;;;16.95;60.27;99896.00;127087;1107;101988;-90
2021/05/19 10:46:46;;;;;;;5.00;4.35;;;;;;;16.95;59.52;99896.85;127130;1107;100797;-87
2021/05/19 10:49:19;;;;;;;4.63;4.23;;;;;;;16.86;60.08;99887.50;127163;1105;101763;-90
2021/05/19 10:52:14;;;;;;;6.75;4.48;;;;;;;16.93;60.22;99889.83;127071;1106;100869;-88
2021/05/19 10:58:41;;;;;;;6.00;3.65;;;;;;;16.79;58.39;99893.34;127186;1107;101048;-88
2021/05/19 11:01:11;;;;;;;4.15;3.50;;;;;;;16.76;58.50;99905.14;127092;1105;101728;-88
2021/05/19 11:04:16;;;;;;;5.77;4.57;;;;;;;16.88;58.90;99901.70;127097;1105;101278;-89
2021/05/19 11:07:03;;;;;;;5.05;4.55;;;;;;;16.97;57.83;99907.55;127198;1104;101058;-88
2021/05/19 11:09:34;;;;;;;5.05;3.90;;;;;;;17.04;58.29;99900.81;127085;1105;101163;-86
2021/05/19 11:12:25;;;;;;;4.70;4.30;;;;;;;17.10;58.11;99897.76;127173;1105;102085;-89
2021/05/19 11:15:03;;;;;;;4.60;4.23;;;;;;;17.12;57.64;99892.28;127051;1107;100993;-88
2021/05/19 11:20:10;;;;;;;4.77;4.37;;;;;;;17.38;56.73;99899.59;127192;1105;101462;-86
2021/05/19 11:22:37;;;;;;;4.00;3.65;;;;;;;17.43;54.74;99899.28;127202;1105;101783;-89
2021/05/19 11:25:06;;;;;;;4.17;3.77;;;;;;;17.37;54.24;99897.00;127157;1106;101009;-85
2021/05/19 11:27:48;;;;;;;5.40;4.68;;;;;;;17.41;55.80;99895.84;127241;1105;101112;-86
2021/05/19 11:30:30;;;;;;;4.35;3.95;;;;;;;17.49;53.54;99884.59;127103;1107;101073;-85
2021/05/19 11:33:12;;;;;;;4.18;3.88;;;;;;;17.41;54.10;99885.08;127229;1105;101680;-86
2021/05/19 11:35:41;;;;;;;3.87;3.53;;;;;;;17.31;54.53;99894.68;127008;1105;101006;-88
2021/05/19 11:38:11;;;;;;;4.05;3.65;;;;;;;17.36;55.02;99890.73;127055;1089;101318;-86
2021/05/19 11:41:01;;;;;;;4.00;3.47;;;;;;;17.48;54.95;99878.33;127044;1107;101037;-86
2021/05/19 11:43:36;;;;;;;4.83;4.43;;;;;;;17.62;55.13;99880.16;126980;1107;102315;-86
2021/05/19 11:46:04;;;;;;;3.48;3.18;;;;;;;17.69;53.98;99862.63;127025;1108;101102;-87
2021/05/19 11:48:31;;;;;;;5.97;4.17;;;;;;;17.81;54.93;99871.74;127101;1107;101374;-86
2021/05/19 11:51:24;;;;;;;4.17;3.73;;;;;;;17.92;54.87;99870.19;127057;1108;100895;-87
2021/05/19 11:54:02;;;;;;;5.08;3.60;;;;;;;17.93;52.11;99864.72;127024;1107;102070;-86
2021/05/19 11:56:52;;;;;;;3.90;2.80;;;;;;;17.94;53.46;99861.07;127059;1107;100836;-85
2021/05/19 11:59:39;;;;;;;2.75;2.55;;;;;;;17.97;50.98;99874.33;127106;1108;100822;-88
2021/05/19 12:02:18;;;;;;;2.63;2.30;;;;;;;17.93;48.50;99871.95;127061;1108;101049;-85
2021/05/19 12:04:53;;;;;;;3.23;2.45;;;;;;;17.86;48.43;99880.39;127039;1108;101774;-89
2021/05/19 12:07:38;;;;;;;2.73;2.25;;;;;;;17.78;46.87;99874.64;127047;1108;101126;-86
2021/05/19 12:10:08;;;;;;;3.63;2.70;;;;;;;17.67;47.40;99879.84;127095;1107;100957;-86
2021/05/19 12:12:36;;;;;;;3.03;2.20;;;;;;;17.64;49.22;99875.52;127091;1107;101906;-85
2021/05/19 12:15:05;;;;;;;4.10;2.40;;;;;;;17.64;48.51;99883.59;127058;1108;102440;-84
2021/05/19 12:17:46;;;;;;;3.75;2.78;;;;;;;17.62;50.48;99869.39;127063;1107;101016;-88
2021/05/19 12:20:25;;;;;;;4.03;2.78;;;;;;;17.66;49.51;99875.41;127069;1107;100980;-87
2021/05/19 12:23:05;;;;;;;3.13;2.20;;;;;;;17.63;47.02;99870.23;127029;1107;101031;-86
2021/05/19 12:25:35;;;;;;;2.43;2.23;;;;;;;17.58;46.35;99869.66;127034;1107;101783;-84
2021/05/19 12:28:05;;;;;;;3.80;3.17;;;;;;;17.51;45.95;99872.77;127073;1108;101110;-87
2021/05/19 12:30:52;;;;;;;2.60;2.40;;;;;;;17.46;46.49;99869.50;127083;1108;101843;-86